sensor_id;sensor_type;location;lat;lon;timestamp;P1;durP1;ratioP1;P2;durP2;ratioP2
54269;SDS011;40181;51.560;13.000;2024-01-06T00:00:12;2.47;;;1.67;;
54269;SDS011;40181;51.560;13.000;2024-01-06T00:02:42;2.67;;;1.90;;
54269;SDS011;40181;51.560;13.000;2024-01-06T00:05:12;1.75;;;1.40;;
54269;SDS011;40181;51.560;13.000;2024-01-06T00:07:41;1.98;;;1.70;;
54269;SDS011;40181;51.560;13.000;2024-01-06T00:10:11;2.88;;;2.03;;
54269;SDS011;40181;51.560;13.000;2024-01-06T00:12:44;2.43;;;1.70;;
54269;SDS011;40181;51.560;13.000;2024-01-06T00:15:13;2.65;;;1.75;;
54269;SDS011;40181;51.560;13.000;2024-01-06T00:17:43;3.00;;;2.25;;
54269;SDS011;40181;51.560;13.000;2024-01-06T00:20:12;3.00;;;2.38;;
54269;SDS011;40181;51.560;13.000;2024-01-06T00:22:41;2.67;;;2.17;;
54269;SDS011;40181;51.560;13.000;2024-01-06T00:25:10;3.63;;;2.00;;
54269;SDS011;40181;51.560;13.000;2024-01-06T00:27:40;1.95;;;1.75;;
54269;SDS011;40181;51.560;13.000;2024-01-06T00:30:12;1.95;;;1.63;;
54269;SDS011;40181;51.560;13.000;2024-01-06T00:32:41;2.38;;;2.05;;
54269;SDS011;40181;51.560;13.000;2024-01-06T00:35:11;3.20;;;2.17;;
54269;SDS011;40181;51.560;13.000;2024-01-06T00:37:40;2.85;;;1.90;;
54269;SDS011;40181;51.560;13.000;2024-01-06T00:40:10;3.60;;;2.37;;
54269;SDS011;40181;51.560;13.000;2024-01-06T00:42:43;2.00;;;1.80;;
54269;SDS011;40181;51.560;13.000;2024-01-06T00:45:13;1.63;;;1.50;;
54269;SDS011;40181;51.560;13.000;2024-01-06T00:47:43;8.70;;;2.38;;
54269;SDS011;40181;51.560;13.000;2024-01-06T00:50:12;2.80;;;1.95;;
54269;SDS011;40181;51.560;13.000;2024-01-06T00:52:43;2.45;;;1.75;;
54269;SDS011;40181;51.560;13.000;2024-01-06T00:55:12;3.92;;;1.85;;
54269;SDS011;40181;51.560;13.000;2024-01-06T00:57:44;4.00;;;2.20;;
54269;SDS011;40181;51.560;13.000;2024-01-06T01:00:14;4.63;;;2.40;;
54269;SDS011;40181;51.560;13.000;2024-01-06T01:02:43;1.92;;;1.65;;
54269;SDS011;40181;51.560;13.000;2024-01-06T01:05:13;3.15;;;2.22;;
54269;SDS011;40181;51.560;13.000;2024-01-06T01:07:43;2.97;;;2.22;;
54269;SDS011;40181;51.560;13.000;2024-01-06T01:10:12;3.58;;;2.72;;
54269;SDS011;40181;51.560;13.000;2024-01-06T01:12:44;3.95;;;2.42;;
54269;SDS011;40181;51.560;13.000;2024-01-06T01:15:14;4.60;;;2.63;;
54269;SDS011;40181;51.560;13.000;2024-01-06T01:17:43;4.40;;;2.63;;
54269;SDS011;40181;51.560;13.000;2024-01-06T01:20:12;4.33;;;2.60;;
54269;SDS011;40181;51.560;13.000;2024-01-06T01:22:42;4.28;;;2.95;;
54269;SDS011;40181;51.560;13.000;2024-01-06T01:25:11;2.58;;;1.92;;
54269;SDS011;40181;51.560;13.000;2024-01-06T01:27:41;6.75;;;2.33;;
54269;SDS011;40181;51.560;13.000;2024-01-06T01:30:13;3.88;;;2.00;;
54269;SDS011;40181;51.560;13.000;2024-01-06T01:32:42;3.30;;;2.47;;
54269;SDS011;40181;51.560;13.000;2024-01-06T01:35:12;4.32;;;2.72;;
54269;SDS011;40181;51.560;13.000;2024-01-06T01:37:41;1.98;;;1.77;;
54269;SDS011;40181;51.560;13.000;2024-01-06T01:40:11;2.35;;;1.75;;
54269;SDS011;40181;51.560;13.000;2024-01-06T01:42:40;3.17;;;2.13;;
54269;SDS011;40181;51.560;13.000;2024-01-06T01:45:13;1.85;;;1.65;;
54269;SDS011;40181;51.560;13.000;2024-01-06T01:47:42;4.72;;;2.42;;
54269;SDS011;40181;51.560;13.000;2024-01-06T01:50:12;2.07;;;1.53;;
54269;SDS011;40181;51.560;13.000;2024-01-06T01:55:11;5.97;;;2.10;;
54269;SDS011;40181;51.560;13.000;2024-01-06T01:57:41;2.70;;;1.85;;
54269;SDS011;40181;51.560;13.000;2024-01-06T02:00:13;2.30;;;2.10;;
54269;SDS011;40181;51.560;13.000;2024-01-06T02:02:44;1.58;;;1.48;;
54269;SDS011;40181;51.560;13.000;2024-01-06T02:05:14;2.80;;;2.05;;
54269;SDS011;40181;51.560;13.000;2024-01-06T02:07:43;3.25;;;1.98;;
54269;SDS011;40181;51.560;13.000;2024-01-06T02:10:12;2.35;;;1.52;;
54269;SDS011;40181;51.560;13.000;2024-01-06T02:12:45;3.60;;;2.13;;
54269;SDS011;40181;51.560;13.000;2024-01-06T02:15:14;2.55;;;1.67;;
54269;SDS011;40181;51.560;13.000;2024-01-06T02:17:46;2.45;;;2.10;;
54269;SDS011;40181;51.560;13.000;2024-01-06T02:20:15;2.47;;;1.83;;
54269;SDS011;40181;51.560;13.000;2024-01-06T02:22:51;2.28;;;2.00;;
54269;SDS011;40181;51.560;13.000;2024-01-06T02:25:22;1.83;;;1.50;;
54269;SDS011;40181;51.560;13.000;2024-01-06T02:27:51;1.95;;;1.60;;
54269;SDS011;40181;51.560;13.000;2024-01-06T02:30:23;2.45;;;2.17;;
54269;SDS011;40181;51.560;13.000;2024-01-06T02:32:52;1.70;;;1.40;;
54269;SDS011;40181;51.560;13.000;2024-01-06T02:35:21;2.50;;;1.75;;
54269;SDS011;40181;51.560;13.000;2024-01-06T02:37:53;2.72;;;1.98;;
54269;SDS011;40181;51.560;13.000;2024-01-06T02:40:23;2.53;;;2.03;;
54269;SDS011;40181;51.560;13.000;2024-01-06T02:42:52;2.10;;;1.83;;
54269;SDS011;40181;51.560;13.000;2024-01-06T02:45:21;2.25;;;1.65;;
54269;SDS011;40181;51.560;13.000;2024-01-06T02:47:50;3.50;;;1.70;;
54269;SDS011;40181;51.560;13.000;2024-01-06T02:50:19;4.72;;;2.40;;
54269;SDS011;40181;51.560;13.000;2024-01-06T02:52:49;2.67;;;2.08;;
54269;SDS011;40181;51.560;13.000;2024-01-06T02:55:21;1.60;;;1.50;;
54269;SDS011;40181;51.560;13.000;2024-01-06T02:57:51;2.60;;;2.10;;
54269;SDS011;40181;51.560;13.000;2024-01-06T03:00:20;10.23;;;2.28;;
54269;SDS011;40181;51.560;13.000;2024-01-06T03:02:50;2.17;;;1.85;;
54269;SDS011;40181;51.560;13.000;2024-01-06T03:05:19;3.55;;;2.53;;
54269;SDS011;40181;51.560;13.000;2024-01-06T03:07:49;2.55;;;2.05;;
54269;SDS011;40181;51.560;13.000;2024-01-06T03:10:21;2.13;;;1.90;;
54269;SDS011;40181;51.560;13.000;2024-01-06T03:12:50;2.65;;;1.73;;
54269;SDS011;40181;51.560;13.000;2024-01-06T03:15:19;2.03;;;1.85;;
54269;SDS011;40181;51.560;13.000;2024-01-06T03:17:48;1.98;;;1.77;;
54269;SDS011;40181;51.560;13.000;2024-01-06T03:20:17;2.38;;;2.08;;
54269;SDS011;40181;51.560;13.000;2024-01-06T03:22:47;3.07;;;2.10;;
54269;SDS011;40181;51.560;13.000;2024-01-06T03:25:16;2.85;;;2.00;;
54269;SDS011;40181;51.560;13.000;2024-01-06T03:27:48;1.52;;;1.42;;
54269;SDS011;40181;51.560;13.000;2024-01-06T03:30:18;2.97;;;2.30;;
54269;SDS011;40181;51.560;13.000;2024-01-06T03:32:47;2.30;;;1.90;;
54269;SDS011;40181;51.560;13.000;2024-01-06T03:35:16;1.42;;;1.33;;
54269;SDS011;40181;51.560;13.000;2024-01-06T03:37:46;3.17;;;2.17;;
54269;SDS011;40181;51.560;13.000;2024-01-06T03:40:15;3.10;;;2.28;;
54269;SDS011;40181;51.560;13.000;2024-01-06T03:42:45;2.60;;;2.15;;
54269;SDS011;40181;51.560;13.000;2024-01-06T03:45:18;2.25;;;1.80;;
54269;SDS011;40181;51.560;13.000;2024-01-06T03:47:48;2.88;;;2.28;;
54269;SDS011;40181;51.560;13.000;2024-01-06T03:50:17;2.60;;;2.10;;
54269;SDS011;40181;51.560;13.000;2024-01-06T03:52:47;2.97;;;2.17;;
54269;SDS011;40181;51.560;13.000;2024-01-06T03:57:54;2.28;;;2.05;;
54269;SDS011;40181;51.560;13.000;2024-01-06T04:00:24;3.78;;;2.40;;
54269;SDS011;40181;51.560;13.000;2024-01-06T04:02:53;2.97;;;2.22;;
54269;SDS011;40181;51.560;13.000;2024-01-06T04:05:23;1.90;;;1.70;;
54269;SDS011;40181;51.560;13.000;2024-01-06T04:07:52;2.72;;;2.25;;
54269;SDS011;40181;51.560;13.000;2024-01-06T04:10:22;2.13;;;1.92;;
54269;SDS011;40181;51.560;13.000;2024-01-06T04:12:51;2.08;;;1.88;;
54269;SDS011;40181;51.560;13.000;2024-01-06T04:15:27;3.38;;;2.10;;
54269;SDS011;40181;51.560;13.000;2024-01-06T04:17:56;3.33;;;2.30;;
54269;SDS011;40181;51.560;13.000;2024-01-06T04:20:31;3.28;;;2.15;;
54269;SDS011;40181;51.560;13.000;2024-01-06T04:23:01;2.33;;;2.03;;
54269;SDS011;40181;51.560;13.000;2024-01-06T04:25:31;4.20;;;2.00;;
54269;SDS011;40181;51.560;13.000;2024-01-06T04:28:03;2.30;;;1.88;;
54269;SDS011;40181;51.560;13.000;2024-01-06T04:30:33;3.88;;;2.35;;
54269;SDS011;40181;51.560;13.000;2024-01-06T04:33:03;2.15;;;1.88;;
54269;SDS011;40181;51.560;13.000;2024-01-06T04:35:33;2.20;;;1.95;;
54269;SDS011;40181;51.560;13.000;2024-01-06T04:38:02;3.80;;;2.33;;
54269;SDS011;40181;51.560;13.000;2024-01-06T04:40:31;3.83;;;2.80;;
54269;SDS011;40181;51.560;13.000;2024-01-06T04:43:03;2.40;;;2.20;;
54269;SDS011;40181;51.560;13.000;2024-01-06T04:45:32;3.88;;;2.28;;
54269;SDS011;40181;51.560;13.000;2024-01-06T04:48:02;2.70;;;2.03;;
54269;SDS011;40181;51.560;13.000;2024-01-06T04:50:33;3.30;;;2.25;;
54269;SDS011;40181;51.560;13.000;2024-01-06T04:53:02;2.53;;;2.33;;
54269;SDS011;40181;51.560;13.000;2024-01-06T04:55:32;3.03;;;2.17;;
54269;SDS011;40181;51.560;13.000;2024-01-06T04:58:04;2.40;;;1.83;;
54269;SDS011;40181;51.560;13.000;2024-01-06T05:00:33;3.42;;;2.38;;
54269;SDS011;40181;51.560;13.000;2024-01-06T05:03:04;2.95;;;2.38;;
54269;SDS011;40181;51.560;13.000;2024-01-06T05:05:33;4.13;;;2.30;;
54269;SDS011;40181;51.560;13.000;2024-01-06T05:08:02;3.13;;;2.10;;
54269;SDS011;40181;51.560;13.000;2024-01-06T05:13:04;2.08;;;1.88;;
54269;SDS011;40181;51.560;13.000;2024-01-06T05:15:34;3.25;;;2.08;;
54269;SDS011;40181;51.560;13.000;2024-01-06T05:18:04;1.80;;;1.70;;
54269;SDS011;40181;51.560;13.000;2024-01-06T05:20:34;2.92;;;2.33;;
54269;SDS011;40181;51.560;13.000;2024-01-06T05:23:05;4.28;;;2.72;;
54269;SDS011;40181;51.560;13.000;2024-01-06T05:25:35;2.55;;;2.10;;
54269;SDS011;40181;51.560;13.000;2024-01-06T05:28:08;2.90;;;2.25;;
54269;SDS011;40181;51.560;13.000;2024-01-06T05:30:37;2.35;;;2.03;;
54269;SDS011;40181;51.560;13.000;2024-01-06T05:33:08;2.10;;;1.90;;
54269;SDS011;40181;51.560;13.000;2024-01-06T05:35:38;3.65;;;2.00;;
54269;SDS011;40181;51.560;13.000;2024-01-06T05:38:07;4.45;;;2.53;;
54269;SDS011;40181;51.560;13.000;2024-01-06T05:40:36;5.80;;;2.40;;
54269;SDS011;40181;51.560;13.000;2024-01-06T05:43:08;2.90;;;2.55;;
54269;SDS011;40181;51.560;13.000;2024-01-06T05:45:37;2.63;;;2.35;;
54269;SDS011;40181;51.560;13.000;2024-01-06T05:48:08;2.85;;;2.28;;
54269;SDS011;40181;51.560;13.000;2024-01-06T05:50:37;3.20;;;2.30;;
54269;SDS011;40181;51.560;13.000;2024-01-06T05:53:07;3.35;;;2.50;;
54269;SDS011;40181;51.560;13.000;2024-01-06T05:55:39;2.83;;;2.42;;
54269;SDS011;40181;51.560;13.000;2024-01-06T05:58:11;3.55;;;2.60;;
54269;SDS011;40181;51.560;13.000;2024-01-06T06:00:41;3.05;;;2.50;;
54269;SDS011;40181;51.560;13.000;2024-01-06T06:03:11;2.97;;;2.47;;
54269;SDS011;40181;51.560;13.000;2024-01-06T06:05:41;2.72;;;2.28;;
54269;SDS011;40181;51.560;13.000;2024-01-06T06:08:10;6.78;;;3.13;;
54269;SDS011;40181;51.560;13.000;2024-01-06T06:10:39;2.60;;;2.40;;
54269;SDS011;40181;51.560;13.000;2024-01-06T06:13:27;2.35;;;2.13;;
54269;SDS011;40181;51.560;13.000;2024-01-06T06:15:56;4.10;;;2.45;;
54269;SDS011;40181;51.560;13.000;2024-01-06T06:18:25;2.42;;;2.20;;
54269;SDS011;40181;51.560;13.000;2024-01-06T06:20:55;3.15;;;2.53;;
54269;SDS011;40181;51.560;13.000;2024-01-06T06:23:24;4.97;;;3.20;;
54269;SDS011;40181;51.560;13.000;2024-01-06T06:25:53;3.70;;;2.92;;
54269;SDS011;40181;51.560;13.000;2024-01-06T06:28:23;3.28;;;2.97;;
54269;SDS011;40181;51.560;13.000;2024-01-06T06:30:55;6.35;;;3.78;;
54269;SDS011;40181;51.560;13.000;2024-01-06T06:33:24;5.57;;;3.15;;
54269;SDS011;40181;51.560;13.000;2024-01-06T06:35:53;5.00;;;3.38;;
54269;SDS011;40181;51.560;13.000;2024-01-06T06:38:22;5.13;;;3.45;;
54269;SDS011;40181;51.560;13.000;2024-01-06T06:40:59;4.43;;;3.13;;
54269;SDS011;40181;51.560;13.000;2024-01-06T06:43:31;3.58;;;3.22;;
54269;SDS011;40181;51.560;13.000;2024-01-06T06:46:00;4.57;;;3.70;;
54269;SDS011;40181;51.560;13.000;2024-01-06T06:48:30;3.60;;;3.03;;
54269;SDS011;40181;51.560;13.000;2024-01-06T06:53:30;3.08;;;2.78;;
54269;SDS011;40181;51.560;13.000;2024-01-06T06:55:59;3.53;;;2.97;;
54269;SDS011;40181;51.560;13.000;2024-01-06T06:58:31;4.07;;;3.50;;
54269;SDS011;40181;51.560;13.000;2024-01-06T07:01:01;4.88;;;3.50;;
54269;SDS011;40181;51.560;13.000;2024-01-06T07:03:30;2.83;;;2.60;;
54269;SDS011;40181;51.560;13.000;2024-01-06T07:06:00;5.05;;;3.83;;
54269;SDS011;40181;51.560;13.000;2024-01-06T07:08:29;4.03;;;3.63;;
54269;SDS011;40181;51.560;13.000;2024-01-06T07:10:58;4.25;;;3.58;;
54269;SDS011;40181;51.560;13.000;2024-01-06T07:13:27;5.70;;;4.10;;
54269;SDS011;40181;51.560;13.000;2024-01-06T07:15:59;4.57;;;4.05;;
54269;SDS011;40181;51.560;13.000;2024-01-06T07:18:28;4.65;;;4.25;;
54269;SDS011;40181;51.560;13.000;2024-01-06T07:20:58;4.50;;;3.63;;
54269;SDS011;40181;51.560;13.000;2024-01-06T07:23:29;4.07;;;3.67;;
54269;SDS011;40181;51.560;13.000;2024-01-06T07:25:58;4.70;;;3.85;;
54269;SDS011;40181;51.560;13.000;2024-01-06T07:28:30;4.68;;;4.00;;
54269;SDS011;40181;51.560;13.000;2024-01-06T07:31:00;7.40;;;5.00;;
54269;SDS011;40181;51.560;13.000;2024-01-06T07:33:29;5.57;;;4.47;;
54269;SDS011;40181;51.560;13.000;2024-01-06T07:35:58;4.78;;;4.07;;
54269;SDS011;40181;51.560;13.000;2024-01-06T07:38:28;5.80;;;4.78;;
54269;SDS011;40181;51.560;13.000;2024-01-06T07:40:58;4.95;;;4.45;;
54269;SDS011;40181;51.560;13.000;2024-01-06T07:43:27;7.78;;;4.55;;
54269;SDS011;40181;51.560;13.000;2024-01-06T07:45:59;5.65;;;4.45;;
54269;SDS011;40181;51.560;13.000;2024-01-06T07:48:28;6.88;;;4.40;;
54269;SDS011;40181;51.560;13.000;2024-01-06T07:50:58;5.95;;;4.45;;
54269;SDS011;40181;51.560;13.000;2024-01-06T07:53:28;4.20;;;3.80;;
54269;SDS011;40181;51.560;13.000;2024-01-06T07:55:58;8.30;;;4.18;;
54269;SDS011;40181;51.560;13.000;2024-01-06T07:58:32;4.38;;;3.97;;
54269;SDS011;40181;51.560;13.000;2024-01-06T08:01:01;4.75;;;4.25;;
54269;SDS011;40181;51.560;13.000;2024-01-06T08:03:31;5.73;;;5.10;;
54269;SDS011;40181;51.560;13.000;2024-01-06T08:06:00;5.60;;;4.57;;
54269;SDS011;40181;51.560;13.000;2024-01-06T08:08:32;7.20;;;4.93;;
54269;SDS011;40181;51.560;13.000;2024-01-06T08:11:01;5.03;;;4.45;;
54269;SDS011;40181;51.560;13.000;2024-01-06T08:13:34;5.80;;;5.00;;
54269;SDS011;40181;51.560;13.000;2024-01-06T08:16:04;5.80;;;4.75;;
54269;SDS011;40181;51.560;13.000;2024-01-06T08:18:33;6.57;;;5.22;;
54269;SDS011;40181;51.560;13.000;2024-01-06T08:21:03;8.57;;;6.50;;
54269;SDS011;40181;51.560;13.000;2024-01-06T08:23:32;9.57;;;5.65;;
54269;SDS011;40181;51.560;13.000;2024-01-06T08:26:02;6.88;;;5.20;;
54269;SDS011;40181;51.560;13.000;2024-01-06T08:28:34;10.40;;;5.63;;
54269;SDS011;40181;51.560;13.000;2024-01-06T08:31:04;10.43;;;5.93;;
54269;SDS011;40181;51.560;13.000;2024-01-06T08:33:33;6.70;;;5.13;;
54269;SDS011;40181;51.560;13.000;2024-01-06T08:36:02;7.13;;;5.00;;
54269;SDS011;40181;51.560;13.000;2024-01-06T08:38:32;5.93;;;4.90;;
54269;SDS011;40181;51.560;13.000;2024-01-06T08:41:02;6.35;;;4.53;;
54269;SDS011;40181;51.560;13.000;2024-01-06T08:43:34;4.88;;;4.38;;
54269;SDS011;40181;51.560;13.000;2024-01-06T08:46:03;8.77;;;5.60;;
54269;SDS011;40181;51.560;13.000;2024-01-06T08:48:33;7.37;;;5.60;;
54269;SDS011;40181;51.560;13.000;2024-01-06T08:51:05;10.32;;;5.18;;
54269;SDS011;40181;51.560;13.000;2024-01-06T08:53:34;5.32;;;4.82;;
54269;SDS011;40181;51.560;13.000;2024-01-06T08:56:03;5.75;;;4.72;;
54269;SDS011;40181;51.560;13.000;2024-01-06T08:58:35;6.23;;;4.70;;
54269;SDS011;40181;51.560;13.000;2024-01-06T09:01:05;8.40;;;6.00;;
54269;SDS011;40181;51.560;13.000;2024-01-06T09:03:34;7.03;;;5.63;;
54269;SDS011;40181;51.560;13.000;2024-01-06T09:06:03;11.25;;;6.55;;
54269;SDS011;40181;51.560;13.000;2024-01-06T09:08:33;7.43;;;5.30;;
54269;SDS011;40181;51.560;13.000;2024-01-06T09:11:02;6.05;;;5.30;;
54269;SDS011;40181;51.560;13.000;2024-01-06T09:13:32;6.55;;;5.60;;
54269;SDS011;40181;51.560;13.000;2024-01-06T09:16:04;6.43;;;5.75;;
54269;SDS011;40181;51.560;13.000;2024-01-06T09:18:33;6.22;;;5.57;;
54269;SDS011;40181;51.560;13.000;2024-01-06T09:21:03;8.43;;;5.28;;
54269;SDS011;40181;51.560;13.000;2024-01-06T09:23:32;7.32;;;5.93;;
54269;SDS011;40181;51.560;13.000;2024-01-06T09:26:02;9.02;;;6.50;;
54269;SDS011;40181;51.560;13.000;2024-01-06T09:28:31;7.13;;;6.43;;
54269;SDS011;40181;51.560;13.000;2024-01-06T09:31:03;7.78;;;6.20;;
54269;SDS011;40181;51.560;13.000;2024-01-06T09:33:33;12.55;;;6.60;;
54269;SDS011;40181;51.560;13.000;2024-01-06T09:36:03;7.05;;;6.35;;
54269;SDS011;40181;51.560;13.000;2024-01-06T09:38:36;9.93;;;7.50;;
54269;SDS011;40181;51.560;13.000;2024-01-06T09:41:06;10.13;;;6.50;;
54269;SDS011;40181;51.560;13.000;2024-01-06T09:43:33;9.52;;;6.63;;
54269;SDS011;40181;51.560;13.000;2024-01-06T09:48:43;7.15;;;6.28;;
54269;SDS011;40181;51.560;13.000;2024-01-06T09:51:16;10.05;;;7.05;;
54269;SDS011;40181;51.560;13.000;2024-01-06T09:53:48;8.27;;;6.07;;
54269;SDS011;40181;51.560;13.000;2024-01-06T09:56:24;10.30;;;8.35;;
54269;SDS011;40181;51.560;13.000;2024-01-06T09:58:56;10.82;;;7.85;;
54269;SDS011;40181;51.560;13.000;2024-01-06T10:01:28;10.35;;;7.97;;
54269;SDS011;40181;51.560;13.000;2024-01-06T10:03:57;11.85;;;8.45;;
54269;SDS011;40181;51.560;13.000;2024-01-06T10:06:28;12.93;;;10.27;;
54269;SDS011;40181;51.560;13.000;2024-01-06T10:08:57;9.77;;;8.75;;
54269;SDS011;40181;51.560;13.000;2024-01-06T10:11:26;11.88;;;9.32;;
54269;SDS011;40181;51.560;13.000;2024-01-06T10:13:56;12.93;;;10.23;;
54269;SDS011;40181;51.560;13.000;2024-01-06T10:16:28;14.70;;;10.13;;
54269;SDS011;40181;51.560;13.000;2024-01-06T10:18:57;15.85;;;10.27;;
54269;SDS011;40181;51.560;13.000;2024-01-06T10:21:26;12.15;;;10.40;;
54269;SDS011;40181;51.560;13.000;2024-01-06T10:23:56;17.75;;;10.38;;
54269;SDS011;40181;51.560;13.000;2024-01-06T10:26:25;19.00;;;10.25;;
54269;SDS011;40181;51.560;13.000;2024-01-06T10:28:56;14.77;;;11.18;;
54269;SDS011;40181;51.560;13.000;2024-01-06T10:31:29;15.40;;;11.27;;
54269;SDS011;40181;51.560;13.000;2024-01-06T10:33:58;14.73;;;11.05;;
54269;SDS011;40181;51.560;13.000;2024-01-06T10:36:31;13.18;;;10.07;;
54269;SDS011;40181;51.560;13.000;2024-01-06T10:39:00;18.63;;;10.25;;
54269;SDS011;40181;51.560;13.000;2024-01-06T10:41:32;12.02;;;9.70;;
54269;SDS011;40181;51.560;13.000;2024-01-06T10:44:03;13.32;;;11.02;;
54269;SDS011;40181;51.560;13.000;2024-01-06T10:46:37;15.10;;;10.50;;
54269;SDS011;40181;51.560;13.000;2024-01-06T10:49:07;15.60;;;9.02;;
54269;SDS011;40181;51.560;13.000;2024-01-06T10:51:38;13.80;;;10.52;;
54269;SDS011;40181;51.560;13.000;2024-01-06T10:54:08;15.65;;;11.40;;
54269;SDS011;40181;51.560;13.000;2024-01-06T10:56:38;14.98;;;10.90;;
54269;SDS011;40181;51.560;13.000;2024-01-06T10:59:07;16.30;;;10.18;;
54269;SDS011;40181;51.560;13.000;2024-01-06T11:01:43;17.25;;;12.25;;
54269;SDS011;40181;51.560;13.000;2024-01-06T11:04:14;14.82;;;10.80;;
54269;SDS011;40181;51.560;13.000;2024-01-06T11:06:44;24.98;;;13.15;;
54269;SDS011;40181;51.560;13.000;2024-01-06T11:09:14;17.27;;;11.48;;
54269;SDS011;40181;51.560;13.000;2024-01-06T11:11:49;20.10;;;13.30;;
54269;SDS011;40181;51.560;13.000;2024-01-06T11:14:21;19.58;;;12.90;;
54269;SDS011;40181;51.560;13.000;2024-01-06T11:16:55;18.83;;;13.35;;
54269;SDS011;40181;51.560;13.000;2024-01-06T11:22:18;24.33;;;18.30;;
54269;SDS011;40181;51.560;13.000;2024-01-06T11:24:50;21.77;;;14.63;;
54269;SDS011;40181;51.560;13.000;2024-01-06T11:27:24;21.52;;;13.95;;
54269;SDS011;40181;51.560;13.000;2024-01-06T11:29:55;14.73;;;12.10;;
54269;SDS011;40181;51.560;13.000;2024-01-06T11:35:04;20.02;;;13.30;;
54269;SDS011;40181;51.560;13.000;2024-01-06T11:37:36;19.80;;;12.73;;
54269;SDS011;40181;51.560;13.000;2024-01-06T11:40:22;20.75;;;13.20;;
54269;SDS011;40181;51.560;13.000;2024-01-06T11:42:58;23.58;;;13.13;;
54269;SDS011;40181;51.560;13.000;2024-01-06T11:45:30;15.90;;;13.13;;
54269;SDS011;40181;51.560;13.000;2024-01-06T11:48:03;22.50;;;16.20;;
54269;SDS011;40181;51.560;13.000;2024-01-06T11:50:35;28.45;;;19.55;;
54269;SDS011;40181;51.560;13.000;2024-01-06T11:53:07;23.75;;;16.25;;
54269;SDS011;40181;51.560;13.000;2024-01-06T11:55:38;28.08;;;18.13;;
54269;SDS011;40181;51.560;13.000;2024-01-06T11:58:07;22.25;;;15.10;;
54269;SDS011;40181;51.560;13.000;2024-01-06T12:03:10;18.48;;;13.63;;
54269;SDS011;40181;51.560;13.000;2024-01-06T12:05:39;22.95;;;14.55;;
54269;SDS011;40181;51.560;13.000;2024-01-06T12:08:10;32.08;;;21.73;;
54269;SDS011;40181;51.560;13.000;2024-01-06T12:10:40;28.15;;;18.90;;
54269;SDS011;40181;51.560;13.000;2024-01-06T12:13:10;26.70;;;20.30;;
54269;SDS011;40181;51.560;13.000;2024-01-06T12:15:42;21.80;;;15.38;;
54269;SDS011;40181;51.560;13.000;2024-01-06T12:18:15;27.63;;;18.52;;
54269;SDS011;40181;51.560;13.000;2024-01-06T12:20:44;34.65;;;22.17;;
54269;SDS011;40181;51.560;13.000;2024-01-06T12:23:23;31.20;;;20.10;;
54269;SDS011;40181;51.560;13.000;2024-01-06T12:25:53;23.20;;;17.33;;
54269;SDS011;40181;51.560;13.000;2024-01-06T12:28:22;28.70;;;19.27;;
54269;SDS011;40181;51.560;13.000;2024-01-06T12:30:53;25.27;;;18.25;;
54269;SDS011;40181;51.560;13.000;2024-01-06T12:33:25;23.80;;;17.17;;
54269;SDS011;40181;51.560;13.000;2024-01-06T12:35:57;26.83;;;20.48;;
54269;SDS011;40181;51.560;13.000;2024-01-06T12:38:27;26.08;;;19.90;;
54269;SDS011;40181;51.560;13.000;2024-01-06T12:40:57;34.97;;;20.88;;
54269;SDS011;40181;51.560;13.000;2024-01-06T12:43:28;28.50;;;20.30;;
54269;SDS011;40181;51.560;13.000;2024-01-06T12:45:57;23.92;;;18.23;;
54269;SDS011;40181;51.560;13.000;2024-01-06T12:48:29;26.83;;;18.08;;
54269;SDS011;40181;51.560;13.000;2024-01-06T12:50:59;23.13;;;18.17;;
54269;SDS011;40181;51.560;13.000;2024-01-06T12:53:28;28.17;;;17.52;;
54269;SDS011;40181;51.560;13.000;2024-01-06T12:55:57;21.73;;;18.05;;
54269;SDS011;40181;51.560;13.000;2024-01-06T12:58:27;24.45;;;17.75;;
54269;SDS011;40181;51.560;13.000;2024-01-06T13:00:56;25.13;;;16.85;;
54269;SDS011;40181;51.560;13.000;2024-01-06T13:03:30;29.98;;;18.10;;
54269;SDS011;40181;51.560;13.000;2024-01-06T13:05:59;23.65;;;18.83;;
54269;SDS011;40181;51.560;13.000;2024-01-06T13:08:29;31.88;;;22.92;;
54269;SDS011;40181;51.560;13.000;2024-01-06T13:10:59;27.08;;;19.73;;
54269;SDS011;40181;51.560;13.000;2024-01-06T13:13:28;22.55;;;17.10;;
54269;SDS011;40181;51.560;13.000;2024-01-06T13:15:58;28.65;;;19.38;;
54269;SDS011;40181;51.560;13.000;2024-01-06T13:18:30;21.90;;;17.13;;
54269;SDS011;40181;51.560;13.000;2024-01-06T13:21:00;26.80;;;19.88;;
54269;SDS011;40181;51.560;13.000;2024-01-06T13:23:29;26.38;;;16.95;;
54269;SDS011;40181;51.560;13.000;2024-01-06T13:25:59;28.45;;;16.98;;
54269;SDS011;40181;51.560;13.000;2024-01-06T13:28:28;19.23;;;16.48;;
54269;SDS011;40181;51.560;13.000;2024-01-06T13:30:57;22.90;;;16.98;;
54269;SDS011;40181;51.560;13.000;2024-01-06T13:33:27;28.80;;;17.10;;
54269;SDS011;40181;51.560;13.000;2024-01-06T13:35:59;31.65;;;19.77;;
54269;SDS011;40181;51.560;13.000;2024-01-06T13:38:29;28.08;;;18.75;;
54269;SDS011;40181;51.560;13.000;2024-01-06T13:40:59;27.48;;;18.25;;
54269;SDS011;40181;51.560;13.000;2024-01-06T13:43:28;25.20;;;17.20;;
54269;SDS011;40181;51.560;13.000;2024-01-06T13:45:58;21.52;;;17.00;;
54269;SDS011;40181;51.560;13.000;2024-01-06T13:48:30;28.50;;;19.85;;
54269;SDS011;40181;51.560;13.000;2024-01-06T13:51:00;33.35;;;18.98;;
54269;SDS011;40181;51.560;13.000;2024-01-06T13:53:29;24.67;;;18.63;;
54269;SDS011;40181;51.560;13.000;2024-01-06T13:55:58;23.23;;;18.38;;
54269;SDS011;40181;51.560;13.000;2024-01-06T13:58:28;33.75;;;20.58;;
54269;SDS011;40181;51.560;13.000;2024-01-06T14:00:57;37.03;;;22.25;;
54269;SDS011;40181;51.560;13.000;2024-01-06T14:03:27;37.97;;;21.98;;
54269;SDS011;40181;51.560;13.000;2024-01-06T14:05:59;28.65;;;18.48;;
54269;SDS011;40181;51.560;13.000;2024-01-06T14:08:29;22.30;;;16.42;;
54269;SDS011;40181;51.560;13.000;2024-01-06T14:11:02;29.05;;;21.83;;
54269;SDS011;40181;51.560;13.000;2024-01-06T14:13:32;24.33;;;18.58;;
54269;SDS011;40181;51.560;13.000;2024-01-06T14:16:02;27.98;;;18.83;;
54269;SDS011;40181;51.560;13.000;2024-01-06T14:18:36;31.38;;;22.20;;
54269;SDS011;40181;51.560;13.000;2024-01-06T14:21:07;34.13;;;22.30;;
54269;SDS011;40181;51.560;13.000;2024-01-06T14:23:39;28.77;;;18.50;;
54269;SDS011;40181;51.560;13.000;2024-01-06T14:26:09;25.15;;;19.63;;
54269;SDS011;40181;51.560;13.000;2024-01-06T14:28:39;34.47;;;20.60;;
54269;SDS011;40181;51.560;13.000;2024-01-06T14:31:08;25.73;;;20.20;;
54269;SDS011;40181;51.560;13.000;2024-01-06T14:33:40;30.48;;;22.33;;
54269;SDS011;40181;51.560;13.000;2024-01-06T14:36:09;40.35;;;24.63;;
54269;SDS011;40181;51.560;13.000;2024-01-06T14:38:39;44.60;;;22.35;;
54269;SDS011;40181;51.560;13.000;2024-01-06T14:41:08;39.33;;;21.50;;
54269;SDS011;40181;51.560;13.000;2024-01-06T14:43:37;32.00;;;20.63;;
54269;SDS011;40181;51.560;13.000;2024-01-06T14:46:07;28.73;;;20.13;;
54269;SDS011;40181;51.560;13.000;2024-01-06T14:48:36;21.17;;;17.27;;
54269;SDS011;40181;51.560;13.000;2024-01-06T14:51:08;28.30;;;19.90;;
54269;SDS011;40181;51.560;13.000;2024-01-06T14:53:38;25.83;;;20.30;;
54269;SDS011;40181;51.560;13.000;2024-01-06T14:56:08;26.65;;;20.17;;
54269;SDS011;40181;51.560;13.000;2024-01-06T14:58:37;38.17;;;25.38;;
54269;SDS011;40181;51.560;13.000;2024-01-06T15:01:07;27.70;;;19.35;;
54269;SDS011;40181;51.560;13.000;2024-01-06T15:03:36;33.22;;;19.75;;